sensor_id;sensor_type;location;lat;lon;timestamp;pressure;altitude;pressure_sealevel;temperature;humidity
74529;BME280;63009;52.584;5.932;2023-01-30T00:00:00;101624.78;;;5.49;100.00
74529;BME280;63009;52.584;5.932;2023-01-30T00:02:26;101620.41;;;5.48;100.00
74529;BME280;63009;52.584;5.932;2023-01-30T00:04:51;101594.28;;;5.45;100.00
74529;BME280;63009;52.584;5.932;2023-01-30T00:07:16;101608.22;;;5.47;100.00
74529;BME280;63009;52.584;5.932;2023-01-30T00:09:41;101603.06;;;5.44;100.00
74529;BME280;63009;52.584;5.932;2023-01-30T00:12:07;101589.09;;;5.44;100.00
74529;BME280;63009;52.584;5.932;2023-01-30T00:14:32;101581.13;;;5.47;100.00
74529;BME280;63009;52.584;5.932;2023-01-30T00:16:57;101568.84;;;5.50;100.00
74529;BME280;63009;52.584;5.932;2023-01-30T00:19:22;101571.41;;;5.52;100.00
74529;BME280;63009;52.584;5.932;2023-01-30T00:21:48;101565.97;;;5.59;100.00
74529;BME280;63009;52.584;5.932;2023-01-30T00:24:13;101552.44;;;5.75;100.00
74529;BME280;63009;52.584;5.932;2023-01-30T00:26:38;101547.00;;;5.82;100.00
74529;BME280;63009;52.584;5.932;2023-01-30T00:29:04;101523.19;;;5.90;100.00
74529;BME280;63009;52.584;5.932;2023-01-30T00:31:29;101513.56;;;5.89;100.00
74529;BME280;63009;52.584;5.932;2023-01-30T00:33:54;101508.09;;;5.98;100.00
74529;BME280;63009;52.584;5.932;2023-01-30T00:36:19;101506.25;;;6.02;100.00
74529;BME280;63009;52.584;5.932;2023-01-30T00:38:45;101509.69;;;6.04;100.00
74529;BME280;63009;52.584;5.932;2023-01-30T00:41:10;101503.47;;;6.08;100.00
74529;BME280;63009;52.584;5.932;2023-01-30T00:43:37;101494.63;;;6.10;100.00
74529;BME280;63009;52.584;5.932;2023-01-30T00:46:28;101498.13;;;6.11;100.00
74529;BME280;63009;52.584;5.932;2023-01-30T00:49:12;101475.25;;;6.14;100.00
74529;BME280;63009;52.584;5.932;2023-01-30T00:51:38;101490.00;;;6.18;100.00
74529;BME280;63009;52.584;5.932;2023-01-30T00:54:03;101480.28;;;6.22;100.00
74529;BME280;63009;52.584;5.932;2023-01-30T00:56:28;101469.78;;;6.22;100.00
74529;BME280;63009;52.584;5.932;2023-01-30T00:58:53;101458.50;;;6.18;100.00
74529;BME280;63009;52.584;5.932;2023-01-30T01:01:19;101453.25;;;6.18;100.00
74529;BME280;63009;52.584;5.932;2023-01-30T01:03:44;101455.88;;;6.20;100.00
74529;BME280;63009;52.584;5.932;2023-01-30T01:06:09;101463.50;;;6.28;100.00
74529;BME280;63009;52.584;5.932;2023-01-30T01:08:35;101454.59;;;6.32;100.00
74529;BME280;63009;52.584;5.932;2023-01-30T01:11:00;101441.72;;;6.24;100.00
74529;BME280;63009;52.584;5.932;2023-01-30T01:13:25;101447.69;;;6.29;100.00
74529;BME280;63009;52.584;5.932;2023-01-30T01:15:51;101442.34;;;6.32;100.00
74529;BME280;63009;52.584;5.932;2023-01-30T01:18:16;101443.59;;;6.20;100.00
74529;BME280;63009;52.584;5.932;2023-01-30T01:20:41;101444.34;;;6.24;100.00
74529;BME280;63009;52.584;5.932;2023-01-30T01:23:09;101453.09;;;6.24;100.00
74529;BME280;63009;52.584;5.932;2023-01-30T01:25:34;101450.50;;;6.23;100.00
74529;BME280;63009;52.584;5.932;2023-01-30T01:28:00;101441.72;;;6.24;100.00
74529;BME280;63009;52.584;5.932;2023-01-30T01:30:25;101442.59;;;6.24;100.00
74529;BME280;63009;52.584;5.932;2023-01-30T01:32:50;101443.50;;;6.23;100.00
74529;BME280;63009;52.584;5.932;2023-01-30T01:35:15;101440.78;;;6.27;100.00
74529;BME280;63009;52.584;5.932;2023-01-30T01:37:41;101447.50;;;6.35;100.00
74529;BME280;63009;52.584;5.932;2023-01-30T01:40:09;101439.59;;;6.37;100.00
74529;BME280;63009;52.584;5.932;2023-01-30T01:42:58;101440.50;;;6.36;100.00
74529;BME280;63009;52.584;5.932;2023-01-30T01:45:24;101447.50;;;6.35;100.00
74529;BME280;63009;52.584;5.932;2023-01-30T01:48:02;101426.56;;;6.34;100.00
74529;BME280;63009;52.584;5.932;2023-01-30T01:50:54;101434.44;;;6.34;100.00
74529;BME280;63009;52.584;5.932;2023-01-30T01:53:23;101418.75;;;6.31;100.00
74529;BME280;63009;52.584;5.932;2023-01-30T01:55:53;101424.69;;;6.37;100.00
74529;BME280;63009;52.584;5.932;2023-01-30T01:58:44;101431.88;;;6.31;100.00
74529;BME280;63009;52.584;5.932;2023-01-30T02:01:10;101407.31;;;6.33;100.00
74529;BME280;63009;52.584;5.932;2023-01-30T02:03:41;101413.50;;;6.31;100.00
74529;BME280;63009;52.584;5.932;2023-01-30T02:06:10;101421.53;;;6.26;100.00
74529;BME280;63009;52.584;5.932;2023-01-30T02:08:40;101417.31;;;6.22;100.00
74529;BME280;63009;52.584;5.932;2023-01-30T02:11:43;101415.47;;;6.24;100.00
74529;BME280;63009;52.584;5.932;2023-01-30T02:14:11;101417.09;;;6.28;100.00
74529;BME280;63009;52.584;5.932;2023-01-30T02:16:37;101419.06;;;6.21;100.00
74529;BME280;63009;52.584;5.932;2023-01-30T02:19:10;101426.84;;;6.24;100.00
74529;BME280;63009;52.584;5.932;2023-01-30T02:22:06;101412.91;;;6.22;100.00
74529;BME280;63009;52.584;5.932;2023-01-30T02:33:33;101422.28;;;6.30;100.00
74529;BME280;63009;52.584;5.932;2023-01-30T02:36:21;101422.34;;;6.28;100.00
74529;BME280;63009;52.584;5.932;2023-01-30T02:39:00;101422.34;;;6.28;100.00
74529;BME280;63009;52.584;5.932;2023-01-30T02:44:04;101406.44;;;6.33;100.00
74529;BME280;63009;52.584;5.932;2023-01-30T02:46:42;101403.06;;;6.29;100.00
74529;BME280;63009;52.584;5.932;2023-01-30T02:49:15;101404.94;;;6.25;100.00
74529;BME280;63009;52.584;5.932;2023-01-30T02:51:43;101403.13;;;6.28;100.00
74529;BME280;63009;52.584;5.932;2023-01-30T02:54:11;101404.84;;;6.29;100.00
74529;BME280;63009;52.584;5.932;2023-01-30T02:56:46;101398.66;;;6.30;100.00
74529;BME280;63009;52.584;5.932;2023-01-30T02:59:15;101393.47;;;6.28;100.00
74529;BME280;63009;52.584;5.932;2023-01-30T03:04:32;101395.25;;;6.28;100.00
74529;BME280;63009;52.584;5.932;2023-01-30T03:15:15;101388.16;;;6.30;100.00
74529;BME280;63009;52.584;5.932;2023-01-30T03:17:44;101382.00;;;6.31;100.00
74529;BME280;63009;52.584;5.932;2023-01-30T03:20:11;101369.09;;;6.24;100.00
74529;BME280;63009;52.584;5.932;2023-01-30T03:22:36;101383.72;;;6.32;100.00
74529;BME280;63009;52.584;5.932;2023-01-30T03:25:02;101379.38;;;6.31;100.00
74529;BME280;63009;52.584;5.932;2023-01-30T03:27:27;101381.16;;;6.30;100.00
74529;BME280;63009;52.584;5.932;2023-01-30T03:29:53;101375.22;;;6.25;100.00
74529;BME280;63009;52.584;5.932;2023-01-30T03:32:18;101373.34;;;6.29;100.00
74529;BME280;63009;52.584;5.932;2023-01-30T03:34:43;101375.03;;;6.30;100.00
74529;BME280;63009;52.584;5.932;2023-01-30T03:37:09;101375.91;;;6.30;100.00
74529;BME280;63009;52.584;5.932;2023-01-30T03:39:34;101366.22;;;6.32;100.00
74529;BME280;63009;52.584;5.932;2023-01-30T03:41:59;101360.25;;;6.27;100.00
74529;BME280;63009;52.584;5.932;2023-01-30T03:44:25;101381.22;;;6.29;100.00
74529;BME280;63009;52.584;5.932;2023-01-30T03:46:50;101372.75;;;6.20;100.00
74529;BME280;63009;52.584;5.932;2023-01-30T03:49:16;101379.88;;;6.15;100.00
74529;BME280;63009;52.584;5.932;2023-01-30T03:51:42;101385.00;;;6.20;100.00
74529;BME280;63009;52.584;5.932;2023-01-30T03:54:07;101385.06;;;6.17;100.00
74529;BME280;63009;52.584;5.932;2023-01-30T03:56:32;101390.25;;;6.20;100.00
74529;BME280;63009;52.584;5.932;2023-01-30T03:58:58;101374.72;;;6.12;100.00
74529;BME280;63009;52.584;5.932;2023-01-30T04:01:23;101389.47;;;6.16;100.00
74529;BME280;63009;52.584;5.932;2023-01-30T04:03:48;101385.88;;;6.19;100.00
74529;BME280;63009;52.584;5.932;2023-01-30T04:06:13;101376.97;;;6.24;100.00
74529;BME280;63009;52.584;5.932;2023-01-30T04:08:39;101373.50;;;6.24;100.00
74529;BME280;63009;52.584;5.932;2023-01-30T04:11:04;101376.06;;;6.25;100.00
74529;BME280;63009;52.584;5.932;2023-01-30T04:13:29;101376.16;;;6.22;100.00
74529;BME280;63009;52.584;5.932;2023-01-30T04:18:43;101361.16;;;6.26;100.00
74529;BME280;63009;52.584;5.932;2023-01-30T04:21:08;101375.16;;;6.27;100.00
74529;BME280;63009;52.584;5.932;2023-01-30T04:23:33;101378.59;;;6.29;100.00
74529;BME280;63009;52.584;5.932;2023-01-30T04:25:59;101378.63;;;6.27;100.00
74529;BME280;63009;52.584;5.932;2023-01-30T04:28:24;101377.69;;;6.30;100.00
74529;BME280;63009;52.584;5.932;2023-01-30T04:30:51;101381.41;;;6.22;100.00
74529;BME280;63009;52.584;5.932;2023-01-30T04:33:17;101379.75;;;6.20;100.00
74529;BME280;63009;52.584;5.932;2023-01-30T04:35:59;101388.38;;;6.23;100.00
74529;BME280;63009;52.584;5.932;2023-01-30T04:38:26;101372.69;;;6.22;100.00
74529;BME280;63009;52.584;5.932;2023-01-30T04:40:54;101382.38;;;6.20;100.00
74529;BME280;63009;52.584;5.932;2023-01-30T04:43:21;101382.31;;;6.21;100.00
74529;BME280;63009;52.584;5.932;2023-01-30T04:45:48;101373.50;;;6.24;100.00
74529;BME280;63009;52.584;5.932;2023-01-30T04:48:14;101366.91;;;6.11;100.00
74529;BME280;63009;52.584;5.932;2023-01-30T04:50:41;101367.50;;;6.20;100.00
74529;BME280;63009;52.584;5.932;2023-01-30T04:53:07;101375.38;;;6.20;99.63
74529;BME280;63009;52.584;5.932;2023-01-30T04:55:32;101376.28;;;6.18;98.96
74529;BME280;63009;52.584;5.932;2023-01-30T04:57:58;101376.28;;;6.19;97.86
74529;BME280;63009;52.584;5.932;2023-01-30T05:00:23;101388.59;;;6.16;98.12
74529;BME280;63009;52.584;5.932;2023-01-30T05:02:49;101398.34;;;6.12;98.16
74529;BME280;63009;52.584;5.932;2023-01-30T05:05:14;101402.03;;;6.07;98.17
74529;BME280;63009;52.584;5.932;2023-01-30T05:07:39;101393.44;;;6.02;98.33
74529;BME280;63009;52.584;5.932;2023-01-30T05:10:05;101392.56;;;6.01;98.18
74529;BME280;63009;52.584;5.932;2023-01-30T05:12:30;101396.91;;;6.02;98.07
74529;BME280;63009;52.584;5.932;2023-01-30T05:14:56;101394.34;;;6.01;97.21
74529;BME280;63009;52.584;5.932;2023-01-30T05:17:21;101394.34;;;6.01;96.29
74529;BME280;63009;52.584;5.932;2023-01-30T05:19:46;101399.44;;;6.05;94.73
74529;BME280;63009;52.584;5.932;2023-01-30T05:22:12;101407.44;;;6.01;94.47
74529;BME280;63009;52.584;5.932;2023-01-30T05:24:37;101404.22;;;5.91;94.75
74529;BME280;63009;52.584;5.932;2023-01-30T05:27:03;101406.97;;;5.86;94.70
74529;BME280;63009;52.584;5.932;2023-01-30T05:29:28;101394.22;;;5.74;94.52
74529;BME280;63009;52.584;5.932;2023-01-30T05:31:53;101402.22;;;5.70;94.86
74529;BME280;63009;52.584;5.932;2023-01-30T05:34:18;101405.00;;;5.65;94.79
74529;BME280;63009;52.584;5.932;2023-01-30T05:36:44;101391.03;;;5.63;94.92
74529;BME280;63009;52.584;5.932;2023-01-30T05:39:09;101388.75;;;5.52;95.17
74529;BME280;63009;52.584;5.932;2023-01-30T05:41:35;101397.34;;;5.57;95.35
74529;BME280;63009;52.584;5.932;2023-01-30T05:44:00;101398.38;;;5.52;95.18
74529;BME280;63009;52.584;5.932;2023-01-30T05:46:25;101400.16;;;5.51;95.41
74529;BME280;63009;52.584;5.932;2023-01-30T05:48:50;101400.34;;;5.44;95.63
74529;BME280;63009;52.584;5.932;2023-01-30T05:51:18;101405.78;;;5.38;96.19
74529;BME280;63009;52.584;5.932;2023-01-30T05:53:43;101406.72;;;5.35;96.30
74529;BME280;63009;52.584;5.932;2023-01-30T05:56:09;101387.00;;;5.20;96.50
74529;BME280;63009;52.584;5.932;2023-01-30T05:58:34;101410.34;;;5.29;97.26
74529;BME280;63009;52.584;5.932;2023-01-30T06:01:01;101405.22;;;5.26;97.50
74529;BME280;63009;52.584;5.932;2023-01-30T06:03:26;101403.53;;;5.24;97.67
74529;BME280;63009;52.584;5.932;2023-01-30T06:05:52;101410.59;;;5.20;97.21
74529;BME280;63009;52.584;5.932;2023-01-30T06:08:17;101423.69;;;5.20;97.53
74529;BME280;63009;52.584;5.932;2023-01-30T06:10:42;101421.31;;;5.13;97.05
74529;BME280;63009;52.584;5.932;2023-01-30T06:13:07;101415.34;;;5.07;96.91
74529;BME280;63009;52.584;5.932;2023-01-30T06:15:35;101427.56;;;5.07;96.05
74529;BME280;63009;52.584;5.932;2023-01-30T06:18:00;101422.25;;;5.10;94.34
74529;BME280;63009;52.584;5.932;2023-01-30T06:20:25;101405.72;;;5.08;93.45
74529;BME280;63009;52.584;5.932;2023-01-30T06:22:51;101409.91;;;5.14;92.21
74529;BME280;63009;52.584;5.932;2023-01-30T06:25:16;101415.25;;;5.11;90.95
74529;BME280;63009;52.584;5.932;2023-01-30T06:27:41;101418.69;;;5.13;90.14
74529;BME280;63009;52.584;5.932;2023-01-30T06:30:08;101402.47;;;4.98;90.30
74529;BME280;63009;52.584;5.932;2023-01-30T06:32:33;101424.25;;;5.00;89.59
74529;BME280;63009;52.584;5.932;2023-01-30T06:34:58;101405.22;;;4.92;89.43
74529;BME280;63009;52.584;5.932;2023-01-30T06:37:24;101423.34;;;5.01;88.56
74529;BME280;63009;52.584;5.932;2023-01-30T06:39:49;101426.84;;;5.00;88.62
74529;BME280;63009;52.584;5.932;2023-01-30T06:42:14;101448.66;;;5.01;88.71
74529;BME280;63009;52.584;5.932;2023-01-30T06:44:39;101447.81;;;5.00;88.72
74529;BME280;63009;52.584;5.932;2023-01-30T06:47:05;101445.28;;;4.97;88.28
74529;BME280;63009;52.584;5.932;2023-01-30T06:49:30;101436.56;;;4.97;89.13
74529;BME280;63009;52.584;5.932;2023-01-30T06:51:55;101438.38;;;4.95;88.75
74529;BME280;63009;52.584;5.932;2023-01-30T06:54:20;101446.22;;;4.95;88.86
74529;BME280;63009;52.584;5.932;2023-01-30T06:56:46;101448.91;;;4.92;88.92
74529;BME280;63009;52.584;5.932;2023-01-30T06:59:11;101454.13;;;4.92;88.29
74529;BME280;63009;52.584;5.932;2023-01-30T07:01:36;101455.00;;;4.92;88.48
74529;BME280;63009;52.584;5.932;2023-01-30T07:04:02;101451.81;;;4.81;88.98
74529;BME280;63009;52.584;5.932;2023-01-30T07:06:28;101456.84;;;4.89;89.12
74529;BME280;63009;52.584;5.932;2023-01-30T07:08:53;101470.53;;;5.00;88.97
74529;BME280;63009;52.584;5.932;2023-01-30T07:11:20;101480.09;;;5.01;89.33
74529;BME280;63009;52.584;5.932;2023-01-30T07:13:45;101474.81;;;5.02;89.33
74529;BME280;63009;52.584;5.932;2023-01-30T07:16:11;101468.47;;;5.13;89.80
74529;BME280;63009;52.584;5.932;2023-01-30T07:18:36;101471.16;;;5.10;90.59
74529;BME280;63009;52.584;5.932;2023-01-30T07:21:01;101481.66;;;5.10;91.85
74529;BME280;63009;52.584;5.932;2023-01-30T07:23:26;101470.25;;;5.11;92.60
74529;BME280;63009;52.584;5.932;2023-01-30T07:25:52;101470.06;;;5.18;92.76
74529;BME280;63009;52.584;5.932;2023-01-30T07:28:17;101464.94;;;5.14;92.79
74529;BME280;63009;52.584;5.932;2023-01-30T07:30:42;101457.03;;;5.15;93.34
74529;BME280;63009;52.584;5.932;2023-01-30T07:33:07;101462.91;;;5.25;93.16
74529;BME280;63009;52.584;5.932;2023-01-30T07:35:34;101460.28;;;5.25;92.73
74529;BME280;63009;52.584;5.932;2023-01-30T07:38:00;101463.84;;;5.22;91.44
74529;BME280;63009;52.584;5.932;2023-01-30T07:40:26;101466.56;;;5.18;91.38
74529;BME280;63009;52.584;5.932;2023-01-30T07:43:02;101458.72;;;5.18;90.68
74529;BME280;63009;52.584;5.932;2023-01-30T07:45:33;101474.44;;;5.18;90.82
74529;BME280;63009;52.584;5.932;2023-01-30T07:47:59;101464.94;;;5.14;90.04
74529;BME280;63009;52.584;5.932;2023-01-30T07:50:24;101473.66;;;5.14;90.44
74529;BME280;63009;52.584;5.932;2023-01-30T07:52:50;101482.34;;;5.16;89.91
74529;BME280;63009;52.584;5.932;2023-01-30T07:55:15;101484.31;;;5.08;90.30
74529;BME280;63009;52.584;5.932;2023-01-30T07:57:40;101483.41;;;5.09;90.25
74529;BME280;63009;52.584;5.932;2023-01-30T08:00:06;101488.47;;;5.15;90.17
74529;BME280;63009;52.584;5.932;2023-01-30T08:02:34;101499.78;;;5.17;89.94
74529;BME280;63009;52.584;5.932;2023-01-30T08:04:59;101489.19;;;5.22;90.38
74529;BME280;63009;52.584;5.932;2023-01-30T08:07:24;101507.28;;;5.31;89.93
74529;BME280;63009;52.584;5.932;2023-01-30T08:09:49;101494.84;;;5.39;89.45
74529;BME280;63009;52.584;5.932;2023-01-30T08:12:15;101487.81;;;5.41;89.21
74529;BME280;63009;52.584;5.932;2023-01-30T08:14:40;101504.34;;;5.43;89.33
74529;BME280;63009;52.584;5.932;2023-01-30T08:17:05;101496.63;;;5.39;88.54
74529;BME280;63009;52.584;5.932;2023-01-30T08:19:30;101508.56;;;5.49;88.84
74529;BME280;63009;52.584;5.932;2023-01-30T08:21:57;101499.09;;;5.43;89.03
74529;BME280;63009;52.584;5.932;2023-01-30T08:24:23;101512.06;;;5.48;88.68
74529;BME280;63009;52.584;5.932;2023-01-30T08:26:48;101506.06;;;5.44;88.97
74529;BME280;63009;52.584;5.932;2023-01-30T08:29:14;101508.59;;;5.47;89.10
74529;BME280;63009;52.584;5.932;2023-01-30T08:31:39;101514.69;;;5.49;89.43
74529;BME280;63009;52.584;5.932;2023-01-30T08:34:04;101508.63;;;5.46;88.89
74529;BME280;63009;52.584;5.932;2023-01-30T08:36:30;101520.56;;;5.57;88.52
74529;BME280;63009;52.584;5.932;2023-01-30T08:38:55;101508.59;;;5.47;89.24
74529;BME280;63009;52.584;5.932;2023-01-30T08:41:20;101521.50;;;5.55;88.75
74529;BME280;63009;52.584;5.932;2023-01-30T08:43:45;101536.31;;;5.57;88.94
74529;BME280;63009;52.584;5.932;2023-01-30T08:46:11;101529.28;;;5.58;88.74
74529;BME280;63009;52.584;5.932;2023-01-30T08:48:36;101525.69;;;5.62;89.08
74529;BME280;63009;52.584;5.932;2023-01-30T08:51:04;101534.44;;;5.61;88.70
74529;BME280;63009;52.584;5.932;2023-01-30T08:53:29;101538.78;;;5.63;88.24
74529;BME280;63009;52.584;5.932;2023-01-30T08:55:55;101533.50;;;5.65;88.56
74529;BME280;63009;52.584;5.932;2023-01-30T08:58:20;101551.56;;;5.74;88.63
74529;BME280;63009;52.584;5.932;2023-01-30T09:00:46;101541.25;;;5.68;88.81
74529;BME280;63009;52.584;5.932;2023-01-30T09:03:12;101547.22;;;5.73;88.53
74529;BME280;63009;52.584;5.932;2023-01-30T09:05:38;101544.66;;;5.72;89.05
74529;BME280;63009;52.584;5.932;2023-01-30T09:08:03;101550.84;;;5.69;88.58
74529;BME280;63009;52.584;5.932;2023-01-30T09:10:29;101549.00;;;5.73;88.80
74529;BME280;63009;52.584;5.932;2023-01-30T09:12:55;101527.13;;;5.74;88.60
74529;BME280;63009;52.584;5.932;2023-01-30T09:15:20;101549.72;;;5.79;87.81
74529;BME280;63009;52.584;5.932;2023-01-30T09:17:45;101540.81;;;5.85;87.43
74529;BME280;63009;52.584;5.932;2023-01-30T09:20:11;101539.91;;;5.86;86.62
74529;BME280;63009;52.584;5.932;2023-01-30T09:22:36;101535.50;;;5.86;87.33
74529;BME280;63009;52.584;5.932;2023-01-30T09:25:03;101532.88;;;5.86;86.67
74529;BME280;63009;52.584;5.932;2023-01-30T09:27:29;101538.00;;;5.92;86.43
74529;BME280;63009;52.584;5.932;2023-01-30T09:29:54;101525.19;;;5.80;87.11
74529;BME280;63009;52.584;5.932;2023-01-30T09:32:19;101547.66;;;5.92;87.21
74529;BME280;63009;52.584;5.932;2023-01-30T09:34:44;101546.69;;;5.94;86.77
74529;BME280;63009;52.584;5.932;2023-01-30T09:37:10;101563.41;;;5.90;87.56
74529;BME280;63009;52.584;5.932;2023-01-30T09:39:35;101565.00;;;5.96;87.25
74529;BME280;63009;52.584;5.932;2023-01-30T09:45:00;101565.59;;;6.07;86.81
74529;BME280;63009;52.584;5.932;2023-01-30T09:52:52;101575.22;;;6.07;85.97
74529;BME280;63009;52.584;5.932;2023-01-30T09:55:20;101570.88;;;6.06;86.00
74529;BME280;63009;52.584;5.932;2023-01-30T09:57:47;101567.34;;;6.05;86.06
74529;BME280;63009;52.584;5.932;2023-01-30T10:00:23;101568.22;;;6.07;86.09
74529;BME280;63009;52.584;5.932;2023-01-30T10:03:09;101559.59;;;6.02;86.51
74529;BME280;63009;52.584;5.932;2023-01-30T10:08:38;101575.94;;;6.12;86.39
74529;BME280;63009;52.584;5.932;2023-01-30T10:19:58;101578.38;;;6.49;85.01
74529;BME280;63009;52.584;5.932;2023-01-30T10:26:04;101584.56;;;6.46;85.26
74529;BME280;63009;52.584;5.932;2023-01-30T10:28:11;101591.16;;;6.60;84.95
74529;BME280;63009;52.584;5.932;2023-01-30T10:30:39;101579.59;;;6.67;85.50
74529;BME280;63009;52.584;5.932;2023-01-30T10:33:14;101582.59;;;6.82;84.11
74529;BME280;63009;52.584;5.932;2023-01-30T10:35:42;101592.53;;;7.01;84.62
74529;BME280;63009;52.584;5.932;2023-01-30T10:38:24;101590.53;;;7.09;83.70
74529;BME280;63009;52.584;5.932;2023-01-30T10:40:58;101589.25;;;6.94;83.33
74529;BME280;63009;52.584;5.932;2023-01-30T10:43:35;101592.16;;;6.85;83.71
74529;BME280;63009;52.584;5.932;2023-01-30T10:46:23;101592.53;;;7.01;83.62
74529;BME280;63009;52.584;5.932;2023-01-30T10:49:05;101598.59;;;7.03;83.13
74529;BME280;63009;52.584;5.932;2023-01-30T10:51:56;101597.88;;;6.98;83.58
74529;BME280;63009;52.584;5.932;2023-01-30T10:54:28;101610.97;;;6.99;83.28
74529;BME280;63009;52.584;5.932;2023-01-30T10:57:04;101593.81;;;6.88;82.70
74529;BME280;63009;52.584;5.932;2023-01-30T10:59:53;101615.63;;;6.90;82.95
74529;BME280;63009;52.584;5.932;2023-01-30T11:03:17;101611.13;;;6.95;83.99
74529;BME280;63009;52.584;5.932;2023-01-30T11:05:50;101621.59;;;6.96;83.19
74529;BME280;63009;52.584;5.932;2023-01-30T11:10:43;101612.03;;;6.94;81.67
74529;BME280;63009;52.584;5.932;2023-01-30T11:13:16;101620.53;;;7.02;83.97
74529;BME280;63009;52.584;5.932;2023-01-30T11:15:44;101613.28;;;7.10;82.61
74529;BME280;63009;52.584;5.932;2023-01-30T11:18:11;101617.34;;;7.20;81.81
74529;BME280;63009;52.584;5.932;2023-01-30T11:20:41;101610.84;;;7.30;81.96
74529;BME280;63009;52.584;5.932;2023-01-30T11:23:22;101609.53;;;7.43;81.55
74529;BME280;63009;52.584;5.932;2023-01-30T11:25:49;101611.97;;;7.50;80.21
74529;BME280;63009;52.584;5.932;2023-01-30T11:28:14;101623.25;;;7.53;80.04
74529;BME280;63009;52.584;5.932;2023-01-30T11:30:51;101625.78;;;7.56;79.52
74529;BME280;63009;52.584;5.932;2023-01-30T11:33:18;101629.94;;;7.63;79.07
74529;BME280;63009;52.584;5.932;2023-01-30T11:35:55;101631.44;;;7.70;79.66
74529;BME280;63009;52.584;5.932;2023-01-30T11:38:30;101640.13;;;7.72;78.22
74529;BME280;63009;52.584;5.932;2023-01-30T11:41:16;101646.41;;;7.68;78.66
74529;BME280;63009;52.584;5.932;2023-01-30T11:43:42;101643.44;;;7.79;79.13
74529;BME280;63009;52.584;5.932;2023-01-30T11:46:11;101636.91;;;7.64;78.98
74529;BME280;63009;52.584;5.932;2023-01-30T11:49:00;101653.09;;;7.52;78.83
74529;BME280;63009;52.584;5.932;2023-01-30T11:51:26;101666.38;;;7.49;79.01
74529;BME280;63009;52.584;5.932;2023-01-30T11:54:04;101656.81;;;7.47;79.07
74529;BME280;63009;52.584;5.932;2023-01-30T11:58:58;101660.53;;;7.39;78.81
74529;BME280;63009;52.584;5.932;2023-01-30T12:01:34;101667.41;;;7.43;79.50
74529;BME280;63009;52.584;5.932;2023-01-30T12:04:05;101677.22;;;7.38;79.38
74529;BME280;63009;52.584;5.932;2023-01-30T12:06:38;101686.00;;;7.37;80.37
74529;BME280;63009;52.584;5.932;2023-01-30T12:09:04;101682.03;;;7.52;79.49
74529;BME280;63009;52.584;5.932;2023-01-30T12:11:40;101685.63;;;7.50;79.40
74529;BME280;63009;52.584;5.932;2023-01-30T12:14:18;101682.19;;;7.48;80.75
74529;BME280;63009;52.584;5.932;2023-01-30T12:19:58;101671.03;;;7.39;79.67
74529;BME280;63009;52.584;5.932;2023-01-30T12:25:28;101689.13;;;7.22;81.49
74529;BME280;63009;52.584;5.932;2023-01-30T12:28:20;101690.00;;;7.23;80.92
74529;BME280;63009;52.584;5.932;2023-01-30T12:31:11;101682.00;;;7.26;80.81
74529;BME280;63009;52.584;5.932;2023-01-30T12:33:38;101671.16;;;7.36;81.46
74529;BME280;63009;52.584;5.932;2023-01-30T12:39:05;101685.16;;;7.37;79.60
74529;BME280;63009;52.584;5.932;2023-01-30T12:41:43;101687.03;;;7.33;79.49
74529;BME280;63009;52.584;5.932;2023-01-30T12:44:45;101694.66;;;7.13;79.81
74529;BME280;63009;52.584;5.932;2023-01-30T12:55:47;101746.22;;;7.17;79.63
74529;BME280;63009;52.584;5.932;2023-01-30T12:58:21;101729.13;;;7.04;79.91
74529;BME280;63009;52.584;5.932;2023-01-30T13:14:45;101764.44;;;6.94;83.21
74529;BME280;63009;52.584;5.932;2023-01-30T13:17:24;101751.56;;;6.84;83.44
74529;BME280;63009;52.584;5.932;2023-01-30T13:25:32;101771.25;;;7.01;82.97
74529;BME280;63009;52.584;5.932;2023-01-30T13:28:08;101762.63;;;6.96;83.90
74529;BME280;63009;52.584;5.932;2023-01-30T13:30:35;101770.25;;;7.05;83.21
74529;BME280;63009;52.584;5.932;2023-01-30T13:33:09;101755.47;;;7.01;83.13
74529;BME280;63009;52.584;5.932;2023-01-30T13:35:45;101763.28;;;7.04;83.38
74529;BME280;63009;52.584;5.932;2023-01-30T13:38:17;101766.06;;;6.98;83.07
74529;BME280;63009;52.584;5.932;2023-01-30T13:40:44;101776.34;;;7.07;82.79
74529;BME280;63009;52.584;5.932;2023-01-30T13:45:56;101778.22;;;7.02;82.13
74529;BME280;63009;52.584;5.932;2023-01-30T13:48:36;101781.63;;;7.05;83.04
74529;BME280;63009;52.584;5.932;2023-01-30T13:51:43;101788.06;;;6.95;82.02
74529;BME280;63009;52.584;5.932;2023-01-30T13:56:56;101801.81;;;7.03;81.80
74529;BME280;63009;52.584;5.932;2023-01-30T14:02:22;101809.94;;;6.96;81.95
74529;BME280;63009;52.584;5.932;2023-01-30T14:04:56;101796.75;;;6.97;80.34
74529;BME280;63009;52.584;5.932;2023-01-30T14:07:30;101813.56;;;6.92;81.25
74529;BME280;63009;52.584;5.932;2023-01-30T14:12:43;101809.22;;;6.91;81.97
74529;BME280;63009;52.584;5.932;2023-01-30T14:17:55;101822.41;;;6.88;82.17
74529;BME280;63009;52.584;5.932;2023-01-30T14:20:21;101833.16;;;6.80;82.11
74529;BME280;63009;52.584;5.932;2023-01-30T14:23:24;101852.41;;;6.80;82.83
74529;BME280;63009;52.584;5.932;2023-01-30T14:25:59;101854.25;;;6.75;82.79
74529;BME280;63009;52.584;5.932;2023-01-30T14:30:57;101877.19;;;6.70;82.69
74529;BME280;63009;52.584;5.932;2023-01-30T14:38:35;101867.50;;;6.72;82.88
74529;BME280;63009;52.584;5.932;2023-01-30T14:43:47;101882.38;;;6.72;82.95
74529;BME280;63009;52.584;5.932;2023-01-30T14:48:44;101897.50;;;6.64;83.78
74529;BME280;63009;52.584;5.932;2023-01-30T14:51:43;101902.84;;;6.59;83.30
74529;BME280;63009;52.584;5.932;2023-01-30T15:02:01;101920.63;;;6.49;85.11
74529;BME280;63009;52.584;5.932;2023-01-30T15:04:48;101918.97;;;6.44;84.98
74529;BME280;63009;52.584;5.932;2023-01-30T15:10:16;101940.28;;;6.32;85.70
74529;BME280;63009;52.584;5.932;2023-01-30T15:16:12;101944.19;;;6.14;86.16
74529;BME280;63009;52.584;5.932;2023-01-30T15:18:39;101962.31;;;6.24;86.70